sensor_id;sensor_type;location;lat;lon;timestamp;P1;durP1;ratioP1;P2;durP2;ratioP2
52962;SDS011;38827;53.024;6.596;2023-03-23T00:01:47;14.20;;;9.85;;
52962;SDS011;38827;53.024;6.596;2023-03-23T00:04:15;14.15;;;9.48;;
52962;SDS011;38827;53.024;6.596;2023-03-23T00:06:42;10.55;;;8.63;;
52962;SDS011;38827;53.024;6.596;2023-03-23T00:09:11;11.98;;;9.13;;
52962;SDS011;38827;53.024;6.596;2023-03-23T00:11:51;10.85;;;8.45;;
52962;SDS011;38827;53.024;6.596;2023-03-23T00:14:30;11.52;;;8.30;;
52962;SDS011;38827;53.024;6.596;2023-03-23T00:17:14;12.25;;;8.35;;
52962;SDS011;38827;53.024;6.596;2023-03-23T00:23:28;11.55;;;7.70;;
52962;SDS011;38827;53.024;6.596;2023-03-23T00:27:09;12.77;;;7.50;;
52962;SDS011;38827;53.024;6.596;2023-03-23T00:36:05;10.27;;;7.63;;
52962;SDS011;38827;53.024;6.596;2023-03-23T00:39:15;13.45;;;7.85;;
52962;SDS011;38827;53.024;6.596;2023-03-23T00:45:18;9.65;;;6.88;;
52962;SDS011;38827;53.024;6.596;2023-03-23T00:48:21;15.10;;;8.18;;
52962;SDS011;38827;53.024;6.596;2023-03-23T00:54:24;8.57;;;6.82;;
52962;SDS011;38827;53.024;6.596;2023-03-23T00:57:29;9.90;;;6.88;;
52962;SDS011;38827;53.024;6.596;2023-03-23T01:00:00;9.52;;;6.20;;
52962;SDS011;38827;53.024;6.596;2023-03-23T01:06:27;8.85;;;5.97;;
52962;SDS011;38827;53.024;6.596;2023-03-23T01:13:16;8.43;;;5.80;;
52962;SDS011;38827;53.024;6.596;2023-03-23T01:19:08;10.25;;;6.22;;
52962;SDS011;38827;53.024;6.596;2023-03-23T01:25:25;10.65;;;5.47;;
52962;SDS011;38827;53.024;6.596;2023-03-23T01:28:21;6.88;;;5.20;;
52962;SDS011;38827;53.024;6.596;2023-03-23T01:34:33;10.27;;;5.07;;
52962;SDS011;38827;53.024;6.596;2023-03-23T01:37:04;7.45;;;4.97;;
52962;SDS011;38827;53.024;6.596;2023-03-23T01:40:17;9.00;;;4.85;;
52962;SDS011;38827;53.024;6.596;2023-03-23T01:50:23;8.88;;;4.57;;
52962;SDS011;38827;53.024;6.596;2023-03-23T01:53:42;6.80;;;4.30;;
52962;SDS011;38827;53.024;6.596;2023-03-23T01:59:20;9.70;;;4.32;;
52962;SDS011;38827;53.024;6.596;2023-03-23T02:02:07;6.90;;;4.28;;
52962;SDS011;38827;53.024;6.596;2023-03-23T02:05:18;6.88;;;4.32;;
52962;SDS011;38827;53.024;6.596;2023-03-23T02:09:06;9.48;;;4.10;;
52962;SDS011;38827;53.024;6.596;2023-03-23T02:12:00;9.48;;;3.80;;
52962;SDS011;38827;53.024;6.596;2023-03-23T02:14:31;8.32;;;3.97;;
52962;SDS011;38827;53.024;6.596;2023-03-23T02:16:59;7.22;;;4.15;;
52962;SDS011;38827;53.024;6.596;2023-03-23T02:19:41;8.15;;;4.10;;
52962;SDS011;38827;53.024;6.596;2023-03-23T02:25:55;6.40;;;3.72;;
52962;SDS011;38827;53.024;6.596;2023-03-23T02:28:50;10.82;;;4.70;;
52962;SDS011;38827;53.024;6.596;2023-03-23T02:31:33;7.18;;;3.75;;
52962;SDS011;38827;53.024;6.596;2023-03-23T02:34:29;5.20;;;3.70;;
52962;SDS011;38827;53.024;6.596;2023-03-23T02:43:08;7.50;;;3.65;;
52962;SDS011;38827;53.024;6.596;2023-03-23T02:45:48;8.52;;;4.20;;
52962;SDS011;38827;53.024;6.596;2023-03-23T02:48:17;9.25;;;3.72;;
52962;SDS011;38827;53.024;6.596;2023-03-23T02:50:54;12.63;;;3.83;;
52962;SDS011;38827;53.024;6.596;2023-03-23T02:53:30;4.85;;;3.10;;
52962;SDS011;38827;53.024;6.596;2023-03-23T02:56:00;6.80;;;3.28;;
52962;SDS011;38827;53.024;6.596;2023-03-23T02:58:32;7.95;;;3.70;;
52962;SDS011;38827;53.024;6.596;2023-03-23T03:00:58;9.20;;;3.70;;
52962;SDS011;38827;53.024;6.596;2023-03-23T03:03:38;5.95;;;3.33;;
52962;SDS011;38827;53.024;6.596;2023-03-23T03:06:20;6.22;;;3.35;;
52962;SDS011;38827;53.024;6.596;2023-03-23T03:11:30;5.47;;;3.42;;
52962;SDS011;38827;53.024;6.596;2023-03-23T03:14:07;6.30;;;3.35;;
52962;SDS011;38827;53.024;6.596;2023-03-23T03:16:40;6.05;;;3.33;;
52962;SDS011;38827;53.024;6.596;2023-03-23T03:19:43;5.35;;;3.17;;
52962;SDS011;38827;53.024;6.596;2023-03-23T03:22:13;7.55;;;3.25;;
52962;SDS011;38827;53.024;6.596;2023-03-23T03:24:42;5.25;;;3.00;;
52962;SDS011;38827;53.024;6.596;2023-03-23T03:27:27;8.68;;;3.35;;
52962;SDS011;38827;53.024;6.596;2023-03-23T03:30:07;6.93;;;3.42;;
52962;SDS011;38827;53.024;6.596;2023-03-23T03:32:54;7.25;;;3.33;;
52962;SDS011;38827;53.024;6.596;2023-03-23T03:35:23;5.25;;;2.80;;
52962;SDS011;38827;53.024;6.596;2023-03-23T03:38:07;5.13;;;3.08;;
52962;SDS011;38827;53.024;6.596;2023-03-23T03:40:43;5.25;;;2.78;;
52962;SDS011;38827;53.024;6.596;2023-03-23T03:43:21;8.25;;;2.95;;
52962;SDS011;38827;53.024;6.596;2023-03-23T03:46:24;4.82;;;3.30;;
52962;SDS011;38827;53.024;6.596;2023-03-23T03:52:39;5.55;;;3.22;;
52962;SDS011;38827;53.024;6.596;2023-03-23T03:55:31;5.30;;;3.33;;
52962;SDS011;38827;53.024;6.596;2023-03-23T03:58:01;6.65;;;4.10;;
52962;SDS011;38827;53.024;6.596;2023-03-23T04:00:45;7.40;;;4.00;;
52962;SDS011;38827;53.024;6.596;2023-03-23T04:03:56;6.80;;;3.65;;
52962;SDS011;38827;53.024;6.596;2023-03-23T04:06:24;5.72;;;3.75;;
52962;SDS011;38827;53.024;6.596;2023-03-23T04:09:13;7.97;;;4.15;;
52962;SDS011;38827;53.024;6.596;2023-03-23T04:11:40;6.25;;;4.00;;
52962;SDS011;38827;53.024;6.596;2023-03-23T04:14:27;7.95;;;4.00;;
52962;SDS011;38827;53.024;6.596;2023-03-23T04:17:01;7.70;;;4.00;;
52962;SDS011;38827;53.024;6.596;2023-03-23T04:19:27;5.60;;;3.93;;
52962;SDS011;38827;53.024;6.596;2023-03-23T04:22:07;6.70;;;3.75;;
52962;SDS011;38827;53.024;6.596;2023-03-23T04:24:44;7.38;;;3.95;;
52962;SDS011;38827;53.024;6.596;2023-03-23T04:27:29;6.10;;;3.78;;
52962;SDS011;38827;53.024;6.596;2023-03-23T04:30:28;7.75;;;4.10;;
52962;SDS011;38827;53.024;6.596;2023-03-23T04:33:05;8.48;;;4.30;;
52962;SDS011;38827;53.024;6.596;2023-03-23T04:35:43;7.18;;;4.18;;
52962;SDS011;38827;53.024;6.596;2023-03-23T04:38:34;8.40;;;4.55;;
52962;SDS011;38827;53.024;6.596;2023-03-23T04:41:12;9.73;;;4.60;;
52962;SDS011;38827;53.024;6.596;2023-03-23T04:43:41;4.85;;;2.30;;
52962;SDS011;38827;53.024;6.596;2023-03-23T04:46:07;9.13;;;2.63;;
52962;SDS011;38827;53.024;6.596;2023-03-23T04:48:35;7.00;;;2.20;;
52962;SDS011;38827;53.024;6.596;2023-03-23T04:51:02;7.07;;;2.38;;
52962;SDS011;38827;53.024;6.596;2023-03-23T04:53:29;8.17;;;3.17;;
52962;SDS011;38827;53.024;6.596;2023-03-23T04:56:01;5.75;;;3.00;;
52962;SDS011;38827;53.024;6.596;2023-03-23T04:58:27;6.70;;;2.83;;
52962;SDS011;38827;53.024;6.596;2023-03-23T05:00:59;4.85;;;2.03;;
52962;SDS011;38827;53.024;6.596;2023-03-23T05:03:29;6.82;;;2.47;;
52962;SDS011;38827;53.024;6.596;2023-03-23T05:05:57;6.60;;;3.10;;
52962;SDS011;38827;53.024;6.596;2023-03-23T05:08:31;7.60;;;2.53;;
52962;SDS011;38827;53.024;6.596;2023-03-23T05:10:58;5.53;;;2.83;;
52962;SDS011;38827;53.024;6.596;2023-03-23T05:13:26;7.57;;;2.22;;
52962;SDS011;38827;53.024;6.596;2023-03-23T05:15:53;9.38;;;2.33;;
52962;SDS011;38827;53.024;6.596;2023-03-23T05:18:19;5.45;;;2.10;;
52962;SDS011;38827;53.024;6.596;2023-03-23T05:20:46;9.18;;;2.72;;
52962;SDS011;38827;53.024;6.596;2023-03-23T05:23:12;9.75;;;1.98;;
52962;SDS011;38827;53.024;6.596;2023-03-23T05:25:38;8.02;;;2.08;;
52962;SDS011;38827;53.024;6.596;2023-03-23T05:28:08;8.18;;;2.28;;
52962;SDS011;38827;53.024;6.596;2023-03-23T05:30:35;8.90;;;2.45;;
52962;SDS011;38827;53.024;6.596;2023-03-23T05:33:01;8.43;;;2.50;;
52962;SDS011;38827;53.024;6.596;2023-03-23T05:37:54;9.70;;;2.50;;
52962;SDS011;38827;53.024;6.596;2023-03-23T05:40:21;9.43;;;2.10;;
52962;SDS011;38827;53.024;6.596;2023-03-23T05:42:48;10.85;;;2.20;;
52962;SDS011;38827;53.024;6.596;2023-03-23T05:45:16;10.63;;;2.67;;
52962;SDS011;38827;53.024;6.596;2023-03-23T05:47:43;7.00;;;2.15;;
52962;SDS011;38827;53.024;6.596;2023-03-23T05:50:09;10.63;;;2.67;;
52962;SDS011;38827;53.024;6.596;2023-03-23T05:55:04;11.33;;;2.97;;
52962;SDS011;38827;53.024;6.596;2023-03-23T05:57:35;11.80;;;2.95;;
52962;SDS011;38827;53.024;6.596;2023-03-23T06:00:08;15.95;;;3.22;;
52962;SDS011;38827;53.024;6.596;2023-03-23T06:02:39;13.80;;;2.72;;
52962;SDS011;38827;53.024;6.596;2023-03-23T06:05:08;16.25;;;3.10;;
52962;SDS011;38827;53.024;6.596;2023-03-23T06:07:38;15.18;;;3.42;;
52962;SDS011;38827;53.024;6.596;2023-03-23T06:10:04;14.23;;;3.92;;
52962;SDS011;38827;53.024;6.596;2023-03-23T06:12:32;14.00;;;3.22;;
52962;SDS011;38827;53.024;6.596;2023-03-23T06:14:58;10.00;;;2.88;;
52962;SDS011;38827;53.024;6.596;2023-03-23T06:17:24;10.82;;;2.72;;
52962;SDS011;38827;53.024;6.596;2023-03-23T06:19:51;16.33;;;3.03;;
52962;SDS011;38827;53.024;6.596;2023-03-23T06:22:17;15.32;;;3.13;;
52962;SDS011;38827;53.024;6.596;2023-03-23T06:24:43;17.85;;;3.33;;
52962;SDS011;38827;53.024;6.596;2023-03-23T06:27:09;14.30;;;2.70;;
52962;SDS011;38827;53.024;6.596;2023-03-23T06:29:35;12.60;;;3.33;;
52962;SDS011;38827;53.024;6.596;2023-03-23T06:32:02;14.60;;;3.08;;
52962;SDS011;38827;53.024;6.596;2023-03-23T06:36:55;13.80;;;3.03;;
52962;SDS011;38827;53.024;6.596;2023-03-23T06:39:21;12.30;;;3.03;;
52962;SDS011;38827;53.024;6.596;2023-03-23T06:41:47;15.70;;;2.83;;
52962;SDS011;38827;53.024;6.596;2023-03-23T06:44:13;14.25;;;3.17;;
52962;SDS011;38827;53.024;6.596;2023-03-23T06:46:40;14.65;;;3.55;;
52962;SDS011;38827;53.024;6.596;2023-03-23T06:49:06;18.40;;;3.95;;
52962;SDS011;38827;53.024;6.596;2023-03-23T06:51:32;14.77;;;3.92;;
52962;SDS011;38827;53.024;6.596;2023-03-23T06:53:58;10.88;;;3.20;;
52962;SDS011;38827;53.024;6.596;2023-03-23T06:56:24;19.67;;;3.03;;
52962;SDS011;38827;53.024;6.596;2023-03-23T06:58:52;16.98;;;3.80;;
52962;SDS011;38827;53.024;6.596;2023-03-23T07:01:18;18.30;;;3.85;;
52962;SDS011;38827;53.024;6.596;2023-03-23T07:03:45;21.42;;;3.97;;
52962;SDS011;38827;53.024;6.596;2023-03-23T07:06:13;22.70;;;4.25;;
52962;SDS011;38827;53.024;6.596;2023-03-23T07:08:42;16.27;;;3.05;;
52962;SDS011;38827;53.024;6.596;2023-03-23T07:11:08;22.20;;;3.60;;
52962;SDS011;38827;53.024;6.596;2023-03-23T07:16:04;18.60;;;3.33;;
52962;SDS011;38827;53.024;6.596;2023-03-23T07:18:31;22.40;;;4.30;;
52962;SDS011;38827;53.024;6.596;2023-03-23T07:20:57;18.92;;;3.58;;
52962;SDS011;38827;53.024;6.596;2023-03-23T07:23:23;20.02;;;3.85;;
52962;SDS011;38827;53.024;6.596;2023-03-23T07:25:49;20.60;;;3.80;;
52962;SDS011;38827;53.024;6.596;2023-03-23T07:28:15;24.63;;;4.35;;
52962;SDS011;38827;53.024;6.596;2023-03-23T07:30:47;19.77;;;4.20;;
52962;SDS011;38827;53.024;6.596;2023-03-23T07:33:13;23.23;;;4.88;;
52962;SDS011;38827;53.024;6.596;2023-03-23T07:35:38;24.05;;;3.65;;
52962;SDS011;38827;53.024;6.596;2023-03-23T07:38:07;14.77;;;3.40;;
52962;SDS011;38827;53.024;6.596;2023-03-23T07:40:33;21.02;;;4.32;;
52962;SDS011;38827;53.024;6.596;2023-03-23T07:43:15;22.55;;;4.45;;
52962;SDS011;38827;53.024;6.596;2023-03-23T07:46:31;20.35;;;4.57;;
52962;SDS011;38827;53.024;6.596;2023-03-23T07:49:02;20.45;;;3.95;;
52962;SDS011;38827;53.024;6.596;2023-03-23T07:51:36;19.80;;;3.63;;
52962;SDS011;38827;53.024;6.596;2023-03-23T07:54:23;21.00;;;3.72;;
52962;SDS011;38827;53.024;6.596;2023-03-23T07:56:55;16.45;;;3.72;;
52962;SDS011;38827;53.024;6.596;2023-03-23T07:59:36;18.92;;;4.18;;
52962;SDS011;38827;53.024;6.596;2023-03-23T08:02:23;25.17;;;4.60;;
52962;SDS011;38827;53.024;6.596;2023-03-23T08:05:02;17.35;;;3.97;;
52962;SDS011;38827;53.024;6.596;2023-03-23T08:07:37;18.90;;;4.00;;
52962;SDS011;38827;53.024;6.596;2023-03-23T08:10:45;22.52;;;3.83;;
52962;SDS011;38827;53.024;6.596;2023-03-23T08:13:55;23.00;;;4.53;;
52962;SDS011;38827;53.024;6.596;2023-03-23T08:17:20;22.83;;;4.90;;
52962;SDS011;38827;53.024;6.596;2023-03-23T08:20:05;22.50;;;4.90;;
52962;SDS011;38827;53.024;6.596;2023-03-23T08:22:58;25.90;;;4.93;;
52962;SDS011;38827;53.024;6.596;2023-03-23T08:25:31;18.10;;;3.92;;
52962;SDS011;38827;53.024;6.596;2023-03-23T08:30:50;21.63;;;4.45;;
52962;SDS011;38827;53.024;6.596;2023-03-23T08:33:33;21.80;;;4.68;;
52962;SDS011;38827;53.024;6.596;2023-03-23T08:36:22;23.63;;;5.28;;
52962;SDS011;38827;53.024;6.596;2023-03-23T08:38:53;20.83;;;3.90;;
52962;SDS011;38827;53.024;6.596;2023-03-23T08:41:23;25.67;;;4.85;;
52962;SDS011;38827;53.024;6.596;2023-03-23T08:44:03;26.15;;;4.47;;
52962;SDS011;38827;53.024;6.596;2023-03-23T08:46:45;20.67;;;4.85;;
52962;SDS011;38827;53.024;6.596;2023-03-23T08:49:20;22.42;;;4.40;;
52962;SDS011;38827;53.024;6.596;2023-03-23T08:51:54;18.67;;;4.60;;
52962;SDS011;38827;53.024;6.596;2023-03-23T08:54:29;20.30;;;4.45;;
52962;SDS011;38827;53.024;6.596;2023-03-23T08:57:04;26.20;;;4.75;;
52962;SDS011;38827;53.024;6.596;2023-03-23T08:59:35;30.80;;;5.60;;
52962;SDS011;38827;53.024;6.596;2023-03-23T09:02:06;27.88;;;4.50;;
52962;SDS011;38827;53.024;6.596;2023-03-23T09:06:08;25.20;;;4.55;;
52962;SDS011;38827;53.024;6.596;2023-03-23T09:08:56;21.30;;;4.57;;
52962;SDS011;38827;53.024;6.596;2023-03-23T09:18:13;28.50;;;5.50;;
52962;SDS011;38827;53.024;6.596;2023-03-23T09:20:54;20.83;;;4.57;;
52962;SDS011;38827;53.024;6.596;2023-03-23T09:34:26;18.42;;;4.18;;
52962;SDS011;38827;53.024;6.596;2023-03-23T09:51:01;17.83;;;3.85;;
52962;SDS011;38827;53.024;6.596;2023-03-23T09:57:04;21.40;;;4.38;;
52962;SDS011;38827;53.024;6.596;2023-03-23T10:03:14;16.63;;;4.07;;
52962;SDS011;38827;53.024;6.596;2023-03-23T10:05:55;19.52;;;3.90;;
52962;SDS011;38827;53.024;6.596;2023-03-23T10:08:27;22.42;;;4.00;;
52962;SDS011;38827;53.024;6.596;2023-03-23T10:16:17;15.82;;;3.40;;
52962;SDS011;38827;53.024;6.596;2023-03-23T10:18:53;15.15;;;3.45;;
52962;SDS011;38827;53.024;6.596;2023-03-23T10:21:27;16.83;;;3.90;;
52962;SDS011;38827;53.024;6.596;2023-03-23T10:23:59;14.48;;;3.38;;
52962;SDS011;38827;53.024;6.596;2023-03-23T10:29:17;16.08;;;3.78;;
52962;SDS011;38827;53.024;6.596;2023-03-23T10:31:58;15.05;;;3.45;;
52962;SDS011;38827;53.024;6.596;2023-03-23T10:34:47;14.30;;;3.63;;
52962;SDS011;38827;53.024;6.596;2023-03-23T10:37:23;13.43;;;3.63;;
52962;SDS011;38827;53.024;6.596;2023-03-23T10:39:56;12.23;;;3.38;;
52962;SDS011;38827;53.024;6.596;2023-03-23T10:42:25;14.93;;;3.50;;
52962;SDS011;38827;53.024;6.596;2023-03-23T10:44:51;16.00;;;3.28;;
52962;SDS011;38827;53.024;6.596;2023-03-23T10:47:20;13.80;;;3.88;;
52962;SDS011;38827;53.024;6.596;2023-03-23T10:49:51;14.15;;;3.50;;
52962;SDS011;38827;53.024;6.596;2023-03-23T10:52:31;13.60;;;3.63;;
52962;SDS011;38827;53.024;6.596;2023-03-23T10:55:07;13.90;;;3.40;;
52962;SDS011;38827;53.024;6.596;2023-03-23T10:57:36;15.55;;;3.58;;
52962;SDS011;38827;53.024;6.596;2023-03-23T11:00:14;11.82;;;2.83;;
52962;SDS011;38827;53.024;6.596;2023-03-23T11:02:46;9.70;;;2.80;;
52962;SDS011;38827;53.024;6.596;2023-03-23T11:05:23;10.30;;;2.78;;
52962;SDS011;38827;53.024;6.596;2023-03-23T11:07:56;7.75;;;2.50;;
52962;SDS011;38827;53.024;6.596;2023-03-23T11:10:27;9.85;;;2.65;;
52962;SDS011;38827;53.024;6.596;2023-03-23T11:13:12;8.57;;;2.38;;
52962;SDS011;38827;53.024;6.596;2023-03-23T11:15:43;9.00;;;2.40;;
52962;SDS011;38827;53.024;6.596;2023-03-23T11:18:26;8.88;;;2.65;;
52962;SDS011;38827;53.024;6.596;2023-03-23T11:21:20;10.68;;;2.92;;
52962;SDS011;38827;53.024;6.596;2023-03-23T11:23:58;12.63;;;2.72;;
52962;SDS011;38827;53.024;6.596;2023-03-23T11:26:32;9.60;;;2.50;;
52962;SDS011;38827;53.024;6.596;2023-03-23T11:29:09;13.15;;;2.83;;
52962;SDS011;38827;53.024;6.596;2023-03-23T11:31:44;9.00;;;2.45;;
52962;SDS011;38827;53.024;6.596;2023-03-23T11:40:17;11.10;;;2.92;;
52962;SDS011;38827;53.024;6.596;2023-03-23T11:46:02;6.45;;;2.13;;
52962;SDS011;38827;53.024;6.596;2023-03-23T11:48:40;9.63;;;2.72;;
52962;SDS011;38827;53.024;6.596;2023-03-23T11:51:36;8.25;;;2.40;;
52962;SDS011;38827;53.024;6.596;2023-03-23T11:58:22;11.95;;;2.55;;
52962;SDS011;38827;53.024;6.596;2023-03-23T12:00:57;7.18;;;2.30;;
52962;SDS011;38827;53.024;6.596;2023-03-23T12:09:47;9.75;;;2.20;;
52962;SDS011;38827;53.024;6.596;2023-03-23T12:15:43;8.75;;;2.10;;
52962;SDS011;38827;53.024;6.596;2023-03-23T12:18:44;7.60;;;2.10;;
52962;SDS011;38827;53.024;6.596;2023-03-23T12:21:32;8.65;;;2.22;;
52962;SDS011;38827;53.024;6.596;2023-03-23T12:27:41;8.13;;;2.58;;
52962;SDS011;38827;53.024;6.596;2023-03-23T12:30:41;6.93;;;2.40;;
52962;SDS011;38827;53.024;6.596;2023-03-23T12:33:36;7.82;;;1.92;;
52962;SDS011;38827;53.024;6.596;2023-03-23T12:39:47;9.85;;;1.83;;
52962;SDS011;38827;53.024;6.596;2023-03-23T12:43:13;9.48;;;2.78;;
52962;SDS011;38827;53.024;6.596;2023-03-23T12:46:05;12.60;;;3.00;;
52962;SDS011;38827;53.024;6.596;2023-03-23T12:52:07;9.07;;;2.47;;
52962;SDS011;38827;53.024;6.596;2023-03-23T12:54:55;9.38;;;2.40;;
52962;SDS011;38827;53.024;6.596;2023-03-23T12:57:49;9.23;;;2.35;;
52962;SDS011;38827;53.024;6.596;2023-03-23T13:06:27;9.98;;;2.25;;
52962;SDS011;38827;53.024;6.596;2023-03-23T13:12:05;8.00;;;1.90;;
52962;SDS011;38827;53.024;6.596;2023-03-23T13:14:47;9.30;;;2.33;;
52962;SDS011;38827;53.024;6.596;2023-03-23T13:17:44;13.80;;;2.83;;
52962;SDS011;38827;53.024;6.596;2023-03-23T13:26:18;14.55;;;2.65;;
52962;SDS011;38827;53.024;6.596;2023-03-23T13:31:42;13.48;;;2.65;;
52962;SDS011;38827;53.024;6.596;2023-03-23T13:36:44;9.90;;;2.70;;
52962;SDS011;38827;53.024;6.596;2023-03-23T13:39:30;11.23;;;2.72;;
52962;SDS011;38827;53.024;6.596;2023-03-23T13:42:17;9.52;;;2.42;;
52962;SDS011;38827;53.024;6.596;2023-03-23T13:48:22;12.70;;;3.08;;
52962;SDS011;38827;53.024;6.596;2023-03-23T13:50:51;11.93;;;2.92;;
52962;SDS011;38827;53.024;6.596;2023-03-23T13:53:31;13.70;;;3.00;;
52962;SDS011;38827;53.024;6.596;2023-03-23T13:56:21;13.88;;;3.35;;
52962;SDS011;38827;53.024;6.596;2023-03-23T13:59:05;9.45;;;2.80;;
52962;SDS011;38827;53.024;6.596;2023-03-23T14:01:35;14.02;;;2.85;;
52962;SDS011;38827;53.024;6.596;2023-03-23T14:04:15;11.95;;;2.90;;
52962;SDS011;38827;53.024;6.596;2023-03-23T14:06:46;12.85;;;2.50;;
52962;SDS011;38827;53.024;6.596;2023-03-23T14:09:36;12.80;;;3.38;;
52962;SDS011;38827;53.024;6.596;2023-03-23T14:12:26;12.80;;;3.22;;
52962;SDS011;38827;53.024;6.596;2023-03-23T14:14:57;11.32;;;3.30;;
52962;SDS011;38827;53.024;6.596;2023-03-23T14:17:31;14.07;;;3.78;;
52962;SDS011;38827;53.024;6.596;2023-03-23T14:20:04;10.50;;;2.60;;
52962;SDS011;38827;53.024;6.596;2023-03-23T14:22:35;10.57;;;2.70;;
52962;SDS011;38827;53.024;6.596;2023-03-23T14:27:38;10.98;;;2.78;;
52962;SDS011;38827;53.024;6.596;2023-03-23T14:30:06;12.38;;;2.45;;
52962;SDS011;38827;53.024;6.596;2023-03-23T14:32:33;11.82;;;2.97;;
52962;SDS011;38827;53.024;6.596;2023-03-23T14:35:03;8.55;;;2.22;;
52962;SDS011;38827;53.024;6.596;2023-03-23T14:37:35;12.15;;;2.75;;
52962;SDS011;38827;53.024;6.596;2023-03-23T14:40:01;13.85;;;3.40;;
52962;SDS011;38827;53.024;6.596;2023-03-23T14:42:32;12.30;;;2.88;;
52962;SDS011;38827;53.024;6.596;2023-03-23T14:45:00;11.75;;;2.25;;
52962;SDS011;38827;53.024;6.596;2023-03-23T14:47:36;11.93;;;2.70;;
52962;SDS011;38827;53.024;6.596;2023-03-23T14:53:16;12.13;;;2.90;;
52962;SDS011;38827;53.024;6.596;2023-03-23T14:55:50;12.65;;;2.88;;
52962;SDS011;38827;53.024;6.596;2023-03-23T14:58:19;10.38;;;2.80;;
52962;SDS011;38827;53.024;6.596;2023-03-23T15:00:52;9.50;;;2.45;;
52962;SDS011;38827;53.024;6.596;2023-03-23T15:03:48;10.77;;;2.47;;
52962;SDS011;38827;53.024;6.596;2023-03-23T15:06:28;8.60;;;1.98;;
52962;SDS011;38827;53.024;6.596;2023-03-23T15:09:01;10.25;;;2.67;;
52962;SDS011;38827;53.024;6.596;2023-03-23T15:11:33;10.93;;;2.60;;
52962;SDS011;38827;53.024;6.596;2023-03-23T15:14:02;11.48;;;2.30;;
52962;SDS011;38827;53.024;6.596;2023-03-23T15:17:38;7.93;;;2.58;;
52962;SDS011;38827;53.024;6.596;2023-03-23T15:22:56;6.40;;;2.10;;
52962;SDS011;38827;53.024;6.596;2023-03-23T15:25:31;8.80;;;2.50;;
52962;SDS011;38827;53.024;6.596;2023-03-23T15:28:06;8.80;;;2.40;;
52962;SDS011;38827;53.024;6.596;2023-03-23T15:30:57;7.57;;;2.40;;
52962;SDS011;38827;53.024;6.596;2023-03-23T15:33:25;11.35;;;2.55;;
52962;SDS011;38827;53.024;6.596;2023-03-23T15:35:53;8.20;;;2.17;;
52962;SDS011;38827;53.024;6.596;2023-03-23T15:38:38;8.40;;;1.90;;
52962;SDS011;38827;53.024;6.596;2023-03-23T15:41:19;10.73;;;2.95;;
52962;SDS011;38827;53.024;6.596;2023-03-23T15:43:54;12.10;;;2.33;;
52962;SDS011;38827;53.024;6.596;2023-03-23T15:49:58;9.73;;;2.47;;
52962;SDS011;38827;53.024;6.596;2023-03-23T15:52:28;9.02;;;2.28;;
52962;SDS011;38827;53.024;6.596;2023-03-23T15:54:54;10.85;;;2.35;;
52962;SDS011;38827;53.024;6.596;2023-03-23T15:57:20;8.65;;;2.13;;
52962;SDS011;38827;53.024;6.596;2023-03-23T15:59:45;9.98;;;2.58;;
52962;SDS011;38827;53.024;6.596;2023-03-23T16:02:21;8.05;;;1.83;;
52962;SDS011;38827;53.024;6.596;2023-03-23T16:04:49;11.52;;;2.83;;
52962;SDS011;38827;53.024;6.596;2023-03-23T16:07:18;10.32;;;2.80;;
52962;SDS011;38827;53.024;6.596;2023-03-23T16:09:46;12.13;;;2.88;;
52962;SDS011;38827;53.024;6.596;2023-03-23T16:12:17;12.07;;;2.75;;
52962;SDS011;38827;53.024;6.596;2023-03-23T16:14:47;13.50;;;2.65;;
52962;SDS011;38827;53.024;6.596;2023-03-23T16:17:21;12.75;;;2.47;;
52962;SDS011;38827;53.024;6.596;2023-03-23T16:20:00;10.10;;;2.70;;
52962;SDS011;38827;53.024;6.596;2023-03-23T16:22:30;11.10;;;2.90;;
52962;SDS011;38827;53.024;6.596;2023-03-23T16:25:02;11.50;;;2.63;;
52962;SDS011;38827;53.024;6.596;2023-03-23T16:27:38;14.27;;;2.60;;
52962;SDS011;38827;53.024;6.596;2023-03-23T16:30:14;12.10;;;2.80;;
52962;SDS011;38827;53.024;6.596;2023-03-23T16:33:01;13.15;;;2.80;;
52962;SDS011;38827;53.024;6.596;2023-03-23T16:35:36;15.35;;;3.45;;
52962;SDS011;38827;53.024;6.596;2023-03-23T16:38:11;14.68;;;3.22;;
52962;SDS011;38827;53.024;6.596;2023-03-23T16:40:41;12.63;;;2.40;;
52962;SDS011;38827;53.024;6.596;2023-03-23T16:45:37;9.73;;;2.80;;
52962;SDS011;38827;53.024;6.596;2023-03-23T16:48:08;13.30;;;2.60;;
52962;SDS011;38827;53.024;6.596;2023-03-23T16:50:38;13.13;;;3.38;;
52962;SDS011;38827;53.024;6.596;2023-03-23T16:53:10;13.40;;;2.33;;
52962;SDS011;38827;53.024;6.596;2023-03-23T16:55:41;11.13;;;2.72;;
52962;SDS011;38827;53.024;6.596;2023-03-23T16:58:36;9.32;;;2.60;;
52962;SDS011;38827;53.024;6.596;2023-03-23T17:01:05;14.15;;;2.67;;
52962;SDS011;38827;53.024;6.596;2023-03-23T17:03:47;12.63;;;3.13;;
52962;SDS011;38827;53.024;6.596;2023-03-23T17:06:23;11.30;;;2.70;;
52962;SDS011;38827;53.024;6.596;2023-03-23T17:08:53;14.32;;;2.80;;
52962;SDS011;38827;53.024;6.596;2023-03-23T17:11:22;13.27;;;3.13;;
52962;SDS011;38827;53.024;6.596;2023-03-23T17:13:57;17.20;;;3.53;;
52962;SDS011;38827;53.024;6.596;2023-03-23T17:16:28;15.07;;;3.00;;
52962;SDS011;38827;53.024;6.596;2023-03-23T17:19:14;13.77;;;3.75;;
52962;SDS011;38827;53.024;6.596;2023-03-23T17:21:47;13.32;;;2.63;;
52962;SDS011;38827;53.024;6.596;2023-03-23T17:24:16;14.07;;;3.37;;
52962;SDS011;38827;53.024;6.596;2023-03-23T17:26:44;14.00;;;3.15;;
52962;SDS011;38827;53.024;6.596;2023-03-23T17:29:12;11.77;;;2.95;;
52962;SDS011;38827;53.024;6.596;2023-03-23T17:31:41;11.52;;;3.05;;
52962;SDS011;38827;53.024;6.596;2023-03-23T17:34:07;18.60;;;2.95;;
52962;SDS011;38827;53.024;6.596;2023-03-23T17:36:36;13.40;;;3.08;;
52962;SDS011;38827;53.024;6.596;2023-03-23T17:39:24;13.77;;;3.33;;
52962;SDS011;38827;53.024;6.596;2023-03-23T17:41:52;14.07;;;3.42;;
52962;SDS011;38827;53.024;6.596;2023-03-23T17:44:25;15.25;;;3.28;;
52962;SDS011;38827;53.024;6.596;2023-03-23T17:46:51;15.75;;;3.05;;
52962;SDS011;38827;53.024;6.596;2023-03-23T17:49:21;15.95;;;2.88;;
52962;SDS011;38827;53.024;6.596;2023-03-23T17:51:50;15.00;;;3.33;;
52962;SDS011;38827;53.024;6.596;2023-03-23T17:54:16;12.63;;;3.47;;
52962;SDS011;38827;53.024;6.596;2023-03-23T17:56:45;19.58;;;3.45;;
52962;SDS011;38827;53.024;6.596;2023-03-23T17:59:17;11.77;;;3.47;;
52962;SDS011;38827;53.024;6.596;2023-03-23T18:01:45;16.45;;;3.20;;
52962;SDS011;38827;53.024;6.596;2023-03-23T18:06:41;15.63;;;3.10;;
52962;SDS011;38827;53.024;6.596;2023-03-23T18:09:08;10.80;;;2.58;;
52962;SDS011;38827;53.024;6.596;2023-03-23T18:11:39;12.02;;;3.00;;
52962;SDS011;38827;53.024;6.596;2023-03-23T18:14:05;12.20;;;3.05;;
52962;SDS011;38827;53.024;6.596;2023-03-23T18:16:34;10.10;;;2.50;;
52962;SDS011;38827;53.024;6.596;2023-03-23T18:19:06;7.82;;;2.30;;
52962;SDS011;38827;53.024;6.596;2023-03-23T18:24:25;8.07;;;2.40;;
52962;SDS011;38827;53.024;6.596;2023-03-23T18:26:58;9.75;;;2.95;;
52962;SDS011;38827;53.024;6.596;2023-03-23T18:29:28;6.43;;;2.25;;
52962;SDS011;38827;53.024;6.596;2023-03-23T18:32:11;7.00;;;2.30;;
52962;SDS011;38827;53.024;6.596;2023-03-23T18:34:46;8.43;;;2.30;;
52962;SDS011;38827;53.024;6.596;2023-03-23T18:40:25;9.82;;;2.92;;
52962;SDS011;38827;53.024;6.596;2023-03-23T18:43:02;7.07;;;2.95;;
52962;SDS011;38827;53.024;6.596;2023-03-23T18:45:28;8.70;;;2.72;;
52962;SDS011;38827;53.024;6.596;2023-03-23T18:48:04;9.90;;;2.55;;
52962;SDS011;38827;53.024;6.596;2023-03-23T18:53:35;10.00;;;2.33;;
52962;SDS011;38827;53.024;6.596;2023-03-23T18:56:14;9.40;;;2.40;;
52962;SDS011;38827;53.024;6.596;2023-03-23T19:03:49;8.50;;;2.58;;
52962;SDS011;38827;53.024;6.596;2023-03-23T19:13:33;15.75;;;2.72;;